Time;durP1;ratioP1;P1;durP2;ratioP2;P2;SDS_P1;SDS_P2;PMS_P1;PMS_P2;Temp;Humidity;BMP_temperature;BMP_pressure;BME280_temperature;BME280_humidity;BME280_pressure;Samples;Min_cycle;Max_cycle;Signal;HPM_P1;HPM_P2
2024/04/07 00:00:02;;;;;;;;;;;;;;;-144.99;64.66;52441.97;4963991;28;20444;-68
2024/04/07 00:02:28;;;;;;;;;;;;;;;-144.99;64.85;52386.94;4972779;28;19989;-69
2024/04/07 00:04:54;;;;;;;;;;;;;;;-144.99;64.76;52386.94;4970414;28;20040;-69
2024/04/07 00:07:20;;;;;;;;;;;;;;;-144.99;65.06;52456.25;4969326;28;20037;-70
2024/04/07 00:09:46;;;;;;;;;;;;;;;-144.99;65.09;52452.16;4972149;28;19934;-70
2024/04/07 00:12:12;;;;;;;;;;;;;;;-144.99;65.07;52419.56;4982049;28;20411;-70
2024/04/07 00:14:39;;;;;;;;;;;;;;;-144.99;65.55;52407.31;4971140;28;20404;-71
2024/04/07 00:17:06;;;;;;;;;;;;;;;-144.99;65.13;52435.88;4970670;28;19926;-66
2024/04/07 00:19:32;;;;;;;;;;;;;;;-144.99;65.15;52444.03;4965251;28;20013;-66
2024/04/07 00:21:58;;;;;;;;;;;;;;;-144.99;64.73;52411.41;4969613;28;20020;-67
2024/04/07 00:24:24;;;;;;;;;;;;;;;-144.99;65.03;52407.31;4961488;28;20221;-66
2024/04/07 00:26:50;;;;;;;;;;;;;;;-144.99;65.01;52399.19;4970254;28;20445;-64
2024/04/07 00:29:16;;;;;;;;;;;;;;;-144.99;65.01;52435.88;4967445;28;20432;-65
2024/04/07 00:31:44;;;;;;;;;;;;;;;-144.99;65.16;52452.16;4983445;28;19969;-64
2024/04/07 00:34:09;;;;;;;;;;;;;;;-144.99;65.06;52431.78;4973141;28;19980;-64
2024/04/07 00:36:36;;;;;;;;;;;;;;;-144.99;64.80;52411.41;4967391;28;20396;-64
2024/04/07 00:39:01;;;;;;;;;;;;;;;-144.99;64.91;52437.91;4969363;28;19934;-64
2024/04/07 00:41:29;;;;;;;;;;;;;;;-144.99;64.87;52462.34;4965806;28;19985;-64
2024/04/07 00:43:54;;;;;;;;;;;;;;;-144.99;64.67;52439.94;4971921;28;19926;-64
2024/04/07 00:46:20;;;;;;;;;;;;;;;-144.99;64.33;52423.63;4965397;28;20286;-66
2024/04/07 00:48:47;;;;;;;;;;;;;;;-144.99;64.39;52444.03;4967321;28;19932;-66
2024/04/07 00:51:15;;;;;;;;;;;;;;;-144.99;63.98;52419.56;4959415;28;19926;-66
2024/04/07 00:53:40;;;;;;;;;;;;;;;-144.99;63.99;52478.66;4972943;28;20107;-66
2024/04/07 00:56:07;;;;;;;;;;;;;;;-144.99;63.75;52452.16;4965551;28;20402;-67
2024/04/07 00:58:32;;;;;;;;;;;;;;;-144.99;63.89;52446.06;4973641;28;19980;-66
2024/04/07 01:00:59;;;;;;;;;;;;;;;-144.99;63.70;52411.41;4968456;28;19990;-67
2024/04/07 01:03:24;;;;;;;;;;;;;;;-144.99;63.78;52423.63;4970388;28;19930;-67
2024/04/07 01:05:52;;;;;;;;;;;;;;;-144.99;63.27;52439.94;4969936;28;20610;-68
2024/04/07 01:08:17;;;;;;;;;;;;;;;-144.99;63.26;52435.88;4972061;28;19926;-70
2024/04/07 01:10:49;;;;;;;;;;;;;;;-144.99;63.24;52423.63;4970106;28;19996;-70
2024/04/07 01:13:15;;;;;;;;;;;;;;;-144.99;63.02;52448.09;4969770;28;19934;-69
2024/04/07 01:15:42;;;;;;;;;;;;;;;-144.99;62.84;52407.31;4971689;28;19925;-70
2024/04/07 01:18:07;;;;;;;;;;;;;;;-144.99;62.92;52431.78;4972836;28;19993;-70
2024/04/07 01:20:34;;;;;;;;;;;;;;;-144.99;63.33;52427.72;4966127;28;19930;-70
2024/04/07 01:23:01;;;;;;;;;;;;;;;-144.99;63.31;52435.88;4968818;28;19930;-70
2024/04/07 01:25:29;;;;;;;;;;;;;;;-144.99;63.35;52427.72;4964268;28;19937;-70
2024/04/07 01:27:56;;;;;;;;;;;;;;;-144.99;63.39;52435.88;4972756;28;19941;-67
2024/04/07 01:30:22;;;;;;;;;;;;;;;-144.99;63.39;52444.03;4966671;28;19958;-68
2024/04/07 01:32:48;;;;;;;;;;;;;;;-144.99;63.15;52446.06;4968917;28;20463;-68
2024/04/07 01:35:14;;;;;;;;;;;;;;;-144.99;63.41;52433.81;4973628;28;20017;-68
2024/04/07 01:37:40;;;;;;;;;;;;;;;-144.99;62.84;52431.78;4963250;28;20343;-68
2024/04/07 01:40:08;;;;;;;;;;;;;;;-144.99;62.48;52397.13;4978657;28;19926;-68
2024/04/07 01:42:36;;;;;;;;;;;;;;;-144.99;62.83;52409.38;4959688;28;20030;-68
2024/04/07 01:45:03;;;;;;;;;;;;;;;-144.99;62.00;52448.09;4966638;28;19933;-68
2024/04/07 01:47:28;;;;;;;;;;;;;;;-144.99;61.72;52448.09;4969607;28;19977;-67
2024/04/07 01:49:55;;;;;;;;;;;;;;;-144.99;62.36;52439.94;4966597;28;19974;-67
2024/04/07 01:52:20;;;;;;;;;;;;;;;-144.99;62.31;52452.16;4963721;28;20677;-68
2024/04/07 01:54:47;;;;;;;;;;;;;;;-144.99;62.46;52419.56;4967460;28;20028;-68
2024/04/07 01:57:12;;;;;;;;;;;;;;;-144.99;62.58;52423.63;4962973;28;20016;-68
2024/04/07 01:59:40;;;;;;;;;;;;;;;-144.99;62.30;52417.53;4966892;28;19965;-68
2024/04/07 02:02:06;;;;;;;;;;;;;;;-144.99;62.10;52452.16;4967226;28;19969;-68
2024/04/07 02:04:32;;;;;;;;;;;;;;;-144.99;62.42;52411.41;4971957;28;19969;-68
2024/04/07 02:06:58;;;;;;;;;;;;;;;-144.99;61.95;52415.47;4966035;28;20025;-67
2024/04/07 02:09:24;;;;;;;;;;;;;;;-144.99;62.20;52437.91;4969008;28;20040;-67
2024/04/07 02:11:50;;;;;;;;;;;;;;;-144.99;62.28;52431.78;4965167;28;19977;-67
2024/04/07 02:14:16;;;;;;;;;;;;;;;-144.99;62.36;52458.28;4964354;28;20001;-71
2024/04/07 02:16:43;;;;;;;;;;;;;;;-144.99;62.34;52407.31;4969631;28;19957;-67
2024/04/07 02:19:11;;;;;;;;;;;;;;;-144.99;62.20;52437.91;4969214;28;20416;-67
2024/04/07 02:21:36;;;;;;;;;;;;;;;-144.99;61.97;52456.25;4969163;28;20013;-66
2024/04/07 02:24:03;;;;;;;;;;;;;;;-144.99;61.77;52419.56;4966657;28;20161;-65
2024/04/07 02:26:28;;;;;;;;;;;;;;;-144.99;61.76;52419.56;4969881;28;19934;-64
2024/04/07 02:28:55;;;;;;;;;;;;;;;-144.99;61.43;52448.09;4968244;28;20367;-64
2024/04/07 02:31:21;;;;;;;;;;;;;;;-144.99;61.41;52427.72;4970561;28;19926;-64
2024/04/07 02:33:49;;;;;;;;;;;;;;;-144.99;61.29;52452.16;4972011;28;19926;-64
2024/04/07 02:36:15;;;;;;;;;;;;;;;-144.99;60.66;52423.63;4964018;28;19926;-64
2024/04/07 02:38:41;;;;;;;;;;;;;;;-144.99;60.46;52480.72;4963902;28;20203;-63
2024/04/07 02:41:07;;;;;;;;;;;;;;;-144.99;60.08;52439.94;4964451;28;19930;-64
2024/04/07 02:43:33;;;;;;;;;;;;;;;-144.99;60.07;52411.41;4969389;28;19988;-64
2024/04/07 02:48:44;;;;;;;;;;;;;;;-144.99;59.61;52401.22;4965024;28;19992;-64
2024/04/07 02:51:12;;;;;;;;;;;;;;;-144.99;59.32;52423.63;4969803;28;20157;-63
2024/04/07 02:53:38;;;;;;;;;;;;;;;-144.99;59.51;52444.03;4964358;28;19981;-63
2024/04/07 02:56:05;;;;;;;;;;;;;;;-144.99;59.41;52452.16;4973076;28;20381;-63
2024/04/07 02:58:31;;;;;;;;;;;;;;;-144.99;59.45;52403.25;4958758;28;19990;-65
2024/04/07 03:01:02;;;;;;;;;;;;;;;-144.99;59.47;52435.88;4967873;28;19958;-64
2024/04/07 03:03:28;;;;;;;;;;;;;;;-144.99;59.21;52431.78;4969574;28;19930;-64
2024/04/07 03:05:54;;;;;;;;;;;;;;;-144.99;59.33;52427.72;4970864;28;20373;-64
2024/04/07 03:08:21;;;;;;;;;;;;;;;-144.99;59.09;52427.72;4966192;28;19934;-64
2024/04/07 03:10:55;;;;;;;;;;;;;;;-144.99;58.95;52431.78;4966232;28;19949;-64
2024/04/07 03:13:21;;;;;;;;;;;;;;;-144.99;58.90;52423.63;4971369;28;20266;-63
2024/04/07 03:15:48;;;;;;;;;;;;;;;-144.99;59.37;52423.63;4968497;28;20005;-63
2024/04/07 03:18:13;;;;;;;;;;;;;;;-144.99;58.97;52419.56;4965112;28;19930;-65
2024/04/07 03:20:40;;;;;;;;;;;;;;;-144.99;59.02;52395.09;4969265;28;19981;-66
2024/04/07 03:23:05;;;;;;;;;;;;;;;-144.99;58.97;52399.19;4960321;28;19933;-62
2024/04/07 03:25:33;;;;;;;;;;;;;;;-144.99;59.04;52419.56;4967801;28;19989;-62
2024/04/07 03:27:58;;;;;;;;;;;;;;;-144.99;59.26;52433.81;4968955;28;19970;-63
2024/04/07 03:30:25;;;;;;;;;;;;;;;-144.99;58.88;52415.47;4966902;28;20404;-62
2024/04/07 03:32:51;;;;;;;;;;;;;;;-144.99;59.05;52397.13;4975438;28;19931;-61
2024/04/07 03:35:17;;;;;;;;;;;;;;;-144.99;59.04;52439.94;4953411;28;20389;-62
2024/04/07 03:37:44;;;;;;;;;;;;;;;-144.99;59.01;52421.59;4963734;28;20030;-62
2024/04/07 03:40:10;;;;;;;;;;;;;;;-144.99;58.70;52423.63;4977626;28;20024;-62
2024/04/07 03:42:38;;;;;;;;;;;;;;;-144.99;58.72;52423.63;4972760;28;20357;-62
2024/04/07 03:45:09;;;;;;;;;;;;;;;-144.99;58.79;52439.94;4971366;28;20016;-62
2024/04/07 03:47:35;;;;;;;;;;;;;;;-144.99;58.51;52423.63;4973061;28;19953;-62
2024/04/07 03:50:01;;;;;;;;;;;;;;;-144.99;58.51;52415.47;4967456;28;20040;-61
2024/04/07 03:52:27;;;;;;;;;;;;;;;-144.99;58.40;52435.88;4969165;28;19969;-61
2024/04/07 03:54:53;;;;;;;;;;;;;;;-144.99;58.49;52444.03;4965075;28;19930;-61
2024/04/07 03:57:19;;;;;;;;;;;;;;;-144.99;58.70;52407.31;4967765;28;19984;-62
2024/04/07 03:59:46;;;;;;;;;;;;;;;-144.99;58.47;52448.09;4963644;28;19930;-62
2024/04/07 04:02:20;;;;;;;;;;;;;;;-144.99;58.54;52454.22;4970019;28;19930;-62
2024/04/07 04:04:54;;;;;;;;;;;;;;;-144.99;58.59;52448.09;4979669;28;20364;-62
2024/04/07 04:07:20;;;;;;;;;;;;;;;-144.99;58.84;52415.47;4975772;28;19930;-63
2024/04/07 04:09:46;;;;;;;;;;;;;;;-144.99;59.10;52444.03;4971680;28;20013;-69
2024/04/07 04:12:12;;;;;;;;;;;;;;;-144.99;58.84;52448.09;4975935;28;20025;-68
2024/04/07 04:14:38;;;;;;;;;;;;;;;-144.99;58.93;52444.03;4971122;28;19932;-69
2024/04/07 04:17:06;;;;;;;;;;;;;;;-144.99;58.93;52439.94;4972977;28;20021;-68
2024/04/07 04:19:31;;;;;;;;;;;;;;;-144.99;59.04;52401.22;4968897;28;19941;-69
2024/04/07 04:21:58;;;;;;;;;;;;;;;-144.99;59.04;52399.19;4970805;28;20353;-68
2024/04/07 04:24:23;;;;;;;;;;;;;;;-144.99;59.42;52439.94;4973013;28;20445;-69
2024/04/07 04:26:50;;;;;;;;;;;;;;;-144.99;59.54;52423.63;4972310;28;19969;-69
2024/04/07 04:29:15;;;;;;;;;;;;;;;-144.99;59.82;52446.06;4973048;28;19926;-68
2024/04/07 04:31:42;;;;;;;;;;;;;;;-144.99;60.07;52476.63;4969418;28;20419;-68
2024/04/07 04:34:09;;;;;;;;;;;;;;;-144.99;60.07;52427.72;4970198;28;20373;-68
2024/04/07 04:36:35;;;;;;;;;;;;;;;-144.99;60.19;52403.25;4971848;28;20356;-68
2024/04/07 04:39:02;;;;;;;;;;;;;;;-144.99;60.35;52407.31;4980362;28;19981;-61
2024/04/07 04:41:28;;;;;;;;;;;;;;;-144.99;60.53;52439.94;4965600;28;19930;-62
2024/04/07 04:43:54;;;;;;;;;;;;;;;-144.99;61.09;52439.94;4974873;28;19973;-62
2024/04/07 04:46:20;;;;;;;;;;;;;;;-144.99;61.69;52464.41;4970520;28;20407;-64
2024/04/07 04:48:46;;;;;;;;;;;;;;;-144.99;62.13;52439.94;4967461;28;19948;-68
2024/04/07 04:51:14;;;;;;;;;;;;;;;-144.99;63.36;52460.31;4970384;28;20373;-67
2024/04/07 04:53:39;;;;;;;;;;;;;;;-144.99;63.66;52397.13;4962869;28;20306;-68
2024/04/07 04:56:06;;;;;;;;;;;;;;;-144.99;64.38;52419.56;4966970;28;19977;-66
2024/04/07 04:58:32;;;;;;;;;;;;;;;-144.99;65.46;52431.78;4965563;28;19934;-66
2024/04/07 05:00:59;;;;;;;;;;;;;;;-144.99;65.59;52456.25;4972382;28;19985;-66
2024/04/07 05:03:25;;;;;;;;;;;;;;;-144.99;66.30;52411.41;4969818;28;19969;-67
2024/04/07 05:05:52;;;;;;;;;;;;;;;-144.99;66.46;52435.88;4968692;28;19930;-66
2024/04/07 05:08:19;;;;;;;;;;;;;;;-144.99;67.45;52431.78;4966402;28;20033;-66
2024/04/07 05:10:46;;;;;;;;;;;;;;;-144.99;69.00;52435.88;4969682;28;20337;-67
2024/04/07 05:13:11;;;;;;;;;;;;;;;-144.99;69.23;52439.94;4973072;28;19929;-64
2024/04/07 05:15:37;;;;;;;;;;;;;;;-144.99;69.47;52460.31;4972617;28;20459;-65
2024/04/07 05:18:03;;;;;;;;;;;;;;;-144.99;69.80;52431.78;4963205;28;19934;-64
2024/04/07 05:20:30;;;;;;;;;;;;;;;-144.99;70.07;52395.09;4970889;28;20345;-65
2024/04/07 05:22:56;;;;;;;;;;;;;;;-144.99;70.42;52452.16;4964962;28;20358;-65
2024/04/07 05:25:25;;;;;;;;;;;;;;;-144.99;71.05;52431.78;4971625;28;19930;-68
2024/04/07 05:27:50;;;;;;;;;;;;;;;-144.99;71.83;52431.78;4965532;28;20353;-68
2024/04/07 05:30:17;;;;;;;;;;;;;;;-144.99;72.80;52419.56;4971726;28;20040;-69
2024/04/07 05:32:42;;;;;;;;;;;;;;;-144.99;73.35;52421.59;4971320;28;19962;-72
2024/04/07 05:35:09;;;;;;;;;;;;;;;-144.99;74.05;52427.72;4969446;28;20008;-71
2024/04/07 05:37:34;;;;;;;;;;;;;;;-144.99;75.05;52435.88;4970923;28;19961;-72
2024/04/07 05:40:01;;;;;;;;;;;;;;;-144.99;74.90;52417.53;4974943;28;19973;-71
2024/04/07 05:42:28;;;;;;;;;;;;;;;-144.99;75.49;52435.88;4968700;28;20427;-71
2024/04/07 05:44:55;;;;;;;;;;;;;;;-144.99;75.70;52399.19;4973793;28;20166;-71
2024/04/07 05:47:21;;;;;;;;;;;;;;;-144.99;75.94;52435.88;4963684;28;20297;-68
2024/04/07 05:49:48;;;;;;;;;;;;;;;-144.99;75.85;52423.63;4968169;28;19948;-68
2024/04/07 05:52:13;;;;;;;;;;;;;;;-144.99;76.44;52425.66;4962577;28;19926;-69
2024/04/07 05:54:40;;;;;;;;;;;;;;;-144.99;76.64;52399.19;4969842;28;20008;-68
2024/04/07 05:57:06;;;;;;;;;;;;;;;-144.99;77.39;52391.03;4962645;28;19934;-69
2024/04/07 05:59:33;;;;;;;;;;;;;;;-144.99;77.65;52444.03;4969715;28;20364;-68
2024/04/07 06:01:59;;;;;;;;;;;;;;;-144.99;77.16;52415.47;4967036;28;20475;-64
2024/04/07 06:04:25;;;;;;;;;;;;;;;-144.99;78.21;52415.47;4967507;28;20029;-64
2024/04/07 06:06:51;;;;;;;;;;;;;;;-144.99;78.47;52435.88;4965090;28;20389;-65
2024/04/07 06:09:17;;;;;;;;;;;;;;;-144.99;78.56;52431.78;4970077;28;20008;-65
2024/04/07 06:11:45;;;;;;;;;;;;;;;-144.99;78.40;52386.94;4966456;28;20004;-64
2024/04/07 06:14:10;;;;;;;;;;;;;;;-144.99;78.26;52431.78;4976827;28;20133;-63
2024/04/07 06:16:39;;;;;;;;;;;;;;;-144.99;78.85;52439.94;4973362;28;20371;-64
2024/04/07 06:19:04;;;;;;;;;;;;;;;-144.99;79.12;52391.03;4974670;28;19930;-64
2024/04/07 06:21:31;;;;;;;;;;;;;;;-144.99;79.43;52382.88;4966956;28;19936;-63
2024/04/07 06:23:57;;;;;;;;;;;;;;;-144.99;78.95;52399.19;4963879;28;20313;-63
2024/04/07 06:26:23;;;;;;;;;;;;;;;-144.99;78.89;52391.03;4961614;28;19973;-66
2024/04/07 06:28:49;;;;;;;;;;;;;;;-144.99;78.49;52419.56;4967702;28;20219;-65
2024/04/07 06:31:15;;;;;;;;;;;;;;;-144.99;78.91;52399.19;4961337;28;19934;-66
2024/04/07 06:33:42;;;;;;;;;;;;;;;-144.99;78.71;52391.03;4968104;28;20161;-65
2024/04/07 06:36:08;;;;;;;;;;;;;;;-144.99;79.08;52419.56;4959337;28;19993;-66
2024/04/07 06:38:35;;;;;;;;;;;;;;;-144.99;79.19;52427.72;4967235;28;19929;-66
2024/04/07 06:41:00;;;;;;;;;;;;;;;-144.99;78.98;52411.41;4971148;28;19930;-66
2024/04/07 06:43:27;;;;;;;;;;;;;;;-144.99;78.57;52415.47;4967077;28;20005;-67
2024/04/07 06:45:54;;;;;;;;;;;;;;;-144.99;78.96;52423.63;4964511;28;20353;-66
2024/04/07 06:48:21;;;;;;;;;;;;;;;-144.99;78.53;52354.34;4975856;28;19926;-66
2024/04/07 06:50:47;;;;;;;;;;;;;;;-144.99;78.36;52456.25;4962355;28;19931;-66
2024/04/07 06:53:14;;;;;;;;;;;;;;;-144.99;78.31;52403.25;4968874;28;19929;-66
2024/04/07 06:55:39;;;;;;;;;;;;;;;-144.99;78.28;52403.25;4965237;28;19930;-66
2024/04/07 06:58:06;;;;;;;;;;;;;;;-144.99;77.91;52399.19;4963808;28;20033;-67
2024/04/07 07:00:31;;;;;;;;;;;;;;;-144.99;78.96;52397.13;4965593;28;19977;-67
2024/04/07 07:02:58;;;;;;;;;;;;;;;-144.99;79.44;52423.63;4967413;28;19978;-66
2024/04/07 07:05:23;;;;;;;;;;;;;;;-144.99;78.67;52386.94;4967443;28;19961;-65
2024/04/07 07:07:51;;;;;;;;;;;;;;;-144.99;78.70;52382.88;4961469;28;19969;-64
2024/04/07 07:10:17;;;;;;;;;;;;;;;-144.99;78.53;52397.13;4968758;28;20131;-72
2024/04/07 07:12:43;;;;;;;;;;;;;;;-144.99;78.72;52431.78;4969201;28;20361;-72
2024/04/07 07:15:09;;;;;;;;;;;;;;;-144.99;78.84;52399.19;4967452;28;20210;-72
2024/04/07 07:17:35;;;;;;;;;;;;;;;-144.99;81.61;52444.03;4968714;28;19930;-72
2024/04/07 07:20:01;;;;;;;;;;;;;;;-144.99;81.42;52415.47;4969356;28;19934;-71
2024/04/07 07:22:27;;;;;;;;;;;;;;;-144.99;82.13;52444.03;4971864;28;19988;-71
2024/04/07 07:24:54;;;;;;;;;;;;;;;-144.99;82.57;52391.03;4969260;28;19926;-70
2024/04/07 07:27:21;;;;;;;;;;;;;;;-144.99;82.66;52395.09;4968192;28;19926;-71
2024/04/07 07:29:46;;;;;;;;;;;;;;;-144.99;83.60;52393.06;4970018;28;19981;-70
2024/04/07 07:32:12;;;;;;;;;;;;;;;-144.99;84.02;52409.38;4960919;28;20316;-71
2024/04/07 07:34:38;;;;;;;;;;;;;;;-144.99;84.19;52431.78;4970937;28;19973;-74
2024/04/07 07:37:04;;;;;;;;;;;;;;;-144.99;84.21;52415.47;4965820;28;19977;-69
2024/04/07 07:39:30;;;;;;;;;;;;;;;-144.99;84.96;52431.78;4969939;28;19936;-70
2024/04/07 07:41:58;;;;;;;;;;;;;;;-144.99;85.38;52415.47;4963077;28;19934;-70
2024/04/07 07:44:23;;;;;;;;;;;;;;;-144.99;85.93;52419.56;4967189;28;19930;-70
2024/04/07 07:46:50;;;;;;;;;;;;;;;-144.99;87.36;52439.94;4961274;28;20280;-69
2024/04/07 07:49:15;;;;;;;;;;;;;;;-144.99;88.21;52419.56;4960430;28;20007;-70
2024/04/07 07:51:42;;;;;;;;;;;;;;;-144.99;88.21;52399.19;4976286;28;19930;-70
2024/04/07 07:54:07;;;;;;;;;;;;;;;-144.99;88.27;52374.72;4966689;28;19930;-70
2024/04/07 07:56:34;;;;;;;;;;;;;;;-144.99;88.57;52391.03;4968384;28;19930;-70
2024/04/07 07:59:01;;;;;;;;;;;;;;;-144.99;87.96;52376.75;4963283;28;19974;-70
2024/04/07 08:01:27;;;;;;;;;;;;;;;-144.99;88.02;52395.09;4954481;28;19926;-70
2024/04/07 08:03:53;;;;;;;;;;;;;;;-144.99;86.98;52423.63;4977701;28;19937;-71
2024/04/07 08:06:19;;;;;;;;;;;;;;;-144.99;87.48;52370.63;4968636;28;19926;-71
2024/04/07 08:08:45;;;;;;;;;;;;;;;-144.99;86.40;52366.56;4965435;28;20306;-75
2024/04/07 08:11:12;;;;;;;;;;;;;;;-144.99;85.70;52378.78;4972863;28;20033;-75
2024/04/07 08:13:37;;;;;;;;;;;;;;;-144.99;84.46;52431.78;4970763;28;19934;-75
2024/04/07 08:16:05;;;;;;;;;;;;;;;-144.99;84.80;52362.50;4964143;28;20298;-74
2024/04/07 08:18:33;;;;;;;;;;;;;;;-144.99;83.24;52382.88;4970255;28;19934;-74
2024/04/07 08:21:00;;;;;;;;;;;;;;;-144.99;81.98;52358.41;4966481;28;19930;-74
2024/04/07 08:23:27;;;;;;;;;;;;;;;-144.99;81.44;52378.78;4973868;28;20017;-73
2024/04/07 08:25:53;;;;;;;;;;;;;;;-144.99;81.99;52399.19;4972016;28;19930;-72
2024/04/07 08:28:20;;;;;;;;;;;;;;;-144.99;80.68;52354.34;4988758;28;19926;-76
2024/04/07 08:30:46;;;;;;;;;;;;;;;-144.99;80.68;52399.19;4988136;28;19926;-77
2024/04/07 08:33:14;;;;;;;;;;;;;;;-144.99;79.92;52358.41;4981217;28;19933;-72
2024/04/07 08:35:39;;;;;;;;;;;;;;;-144.99;79.58;52366.56;4986425;28;19926;-72
2024/04/07 08:38:06;;;;;;;;;;;;;;;-144.99;78.79;52376.75;4985719;28;19926;-74
2024/04/07 08:40:32;;;;;;;;;;;;;;;-144.99;78.00;52378.78;4981855;28;19935;-71
2024/04/07 08:42:58;;;;;;;;;;;;;;;-144.99;77.00;52354.34;4971953;28;19936;-73
2024/04/07 08:45:25;;;;;;;;;;;;;;;-144.99;77.53;52348.22;4971514;28;20377;-71
2024/04/07 08:47:51;;;;;;;;;;;;;;;-144.99;77.28;52350.25;4971019;28;19926;-73
2024/04/07 08:50:18;;;;;;;;;;;;;;;-144.99;75.30;52366.56;4968040;28;19930;-72
2024/04/07 08:52:45;;;;;;;;;;;;;;;-144.99;74.82;52366.56;4973531;28;19930;-73
2024/04/07 08:55:10;;;;;;;;;;;;;;;-144.99;74.02;52362.50;4972926;28;20274;-66
2024/04/07 08:57:38;;;;;;;;;;;;;;;-144.99;73.85;52364.53;4975559;28;20001;-66
2024/04/07 09:00:05;;;;;;;;;;;;;;;-144.99;73.11;52313.56;4972302;28;19981;-67
2024/04/07 09:02:32;;;;;;;;;;;;;;;-144.99;72.64;52329.88;4975360;28;20004;-66
2024/04/07 09:04:57;;;;;;;;;;;;;;;-144.99;71.65;52366.56;4974060;28;19985;-67
2024/04/07 09:07:25;;;;;;;;;;;;;;;-144.99;71.65;52342.09;4971608;28;19926;-67
2024/04/07 09:09:51;;;;;;;;;;;;;;;-144.99;72.10;52317.66;4966175;28;20099;-66
2024/04/07 09:12:17;;;;;;;;;;;;;;;-144.99;71.48;52313.56;4966082;28;20033;-66
2024/04/07 09:14:46;;;;;;;;;;;;;;;-144.99;70.20;52317.66;4966308;28;20252;-66
2024/04/07 09:17:13;;;;;;;;;;;;;;;-144.99;68.47;52321.72;4979532;28;19937;-66
2024/04/07 09:19:39;;;;;;;;;;;;;;;-144.99;67.09;52358.41;4971248;28;19933;-67
2024/04/07 09:22:06;;;;;;;;;;;;;;;-144.99;65.53;52311.53;4970197;28;19930;-67
2024/04/07 09:24:33;;;;;;;;;;;;;;;-144.99;64.86;52309.50;4972131;28;19930;-67
2024/04/07 09:27:00;;;;;;;;;;;;;;;-144.99;62.57;52285.03;4970282;28;19961;-67
2024/04/07 09:29:27;;;;;;;;;;;;;;;-144.99;62.31;52321.72;4966498;28;19926;-67
2024/04/07 09:31:54;;;;;;;;;;;;;;;-144.99;62.07;52309.50;4966785;28;20247;-66
2024/04/07 09:34:19;;;;;;;;;;;;;;;-144.99;61.34;52358.41;4970500;28;19985;-67
2024/04/07 09:36:46;;;;;;;;;;;;;;;-144.99;61.12;52317.66;4951087;28;19989;-67
2024/04/07 09:39:11;;;;;;;;;;;;;;;-144.99;60.59;52283.00;4972995;28;20379;-69
2024/04/07 09:41:39;;;;;;;;;;;;;;;-144.99;59.56;52289.13;4965684;28;19970;-70
2024/04/07 09:44:05;;;;;;;;;;;;;;;-144.99;59.60;52280.97;4964639;28;19970;-70
2024/04/07 09:46:37;;;;;;;;;;;;;;;-144.99;58.86;52264.66;4967022;28;20044;-70
2024/04/07 09:49:03;;;;;;;;;;;;;;;-144.99;58.55;52240.19;4967038;28;19941;-70
2024/04/07 09:51:31;;;;;;;;;;;;;;;-144.99;57.44;52217.78;4971121;28;19933;-70
2024/04/07 09:54:07;;;;;;;;;;;;;;;-144.99;56.16;52260.56;4966449;28;20017;-69
2024/04/07 09:56:34;;;;;;;;;;;;;;;-144.99;57.35;52289.13;4969506;28;20005;-70
2024/04/07 09:59:03;;;;;;;;;;;;;;;-144.99;57.04;52280.97;4962723;28;20389;-70
2024/04/07 10:01:29;;;;;;;;;;;;;;;-144.99;57.69;52276.88;4972016;28;19926;-72
2024/04/07 10:03:55;;;;;;;;;;;;;;;-144.99;57.02;52289.13;4968746;28;19926;-70
2024/04/07 10:06:22;;;;;;;;;;;;;;;-144.99;57.85;52307.47;4972720;28;20377;-70
2024/04/07 10:08:48;;;;;;;;;;;;;;;-144.99;57.77;52268.72;4968196;28;19969;-71
2024/04/07 10:11:16;;;;;;;;;;;;;;;-144.99;58.27;52280.97;4967139;28;19933;-71
2024/04/07 10:13:41;;;;;;;;;;;;;;;-144.99;57.98;52232.03;4955853;28;20448;-70
2024/04/07 10:16:10;;;;;;;;;;;;;;;-144.99;57.22;52244.28;4966758;28;19969;-71
2024/04/07 10:18:36;;;;;;;;;;;;;;;-144.99;57.43;52238.16;4966353;28;19930;-70
2024/04/07 10:21:03;;;;;;;;;;;;;;;-144.99;57.94;52285.03;4969978;28;20030;-71
2024/04/07 10:23:28;;;;;;;;;;;;;;;-144.99;57.39;52252.44;4972085;28;20384;-70
2024/04/07 10:25:59;;;;;;;;;;;;;;;-144.99;58.09;52280.97;4971801;28;19973;-71
2024/04/07 10:28:26;;;;;;;;;;;;;;;-144.99;57.52;52278.91;4968552;28;21638;-71
2024/04/07 10:30:57;;;;;;;;;;;;;;;-144.99;56.90;52289.13;4957851;28;19934;-71
2024/04/07 10:33:29;;;;;;;;;;;;;;;-144.99;56.48;52260.56;4964212;28;20317;-70
2024/04/07 10:35:56;;;;;;;;;;;;;;;-144.99;57.30;52256.50;4970600;28;19926;-70
2024/04/07 10:38:23;;;;;;;;;;;;;;;-144.99;57.03;52248.34;4970432;28;19966;-70
2024/04/07 10:40:51;;;;;;;;;;;;;;;-144.99;55.89;52219.81;4966649;28;19933;-70
2024/04/07 10:43:18;;;;;;;;;;;;;;;-144.99;55.26;52203.50;4970127;28;19927;-71
2024/04/07 10:45:44;;;;;;;;;;;;;;;-144.99;54.36;52195.34;4967261;28;19930;-70
2024/04/07 10:48:10;;;;;;;;;;;;;;;-144.99;54.90;52207.59;4969570;28;20471;-75
2024/04/07 10:50:38;;;;;;;;;;;;;;;-144.99;55.11;52174.97;4967689;28;19973;-68
2024/04/07 10:53:06;;;;;;;;;;;;;;;-144.99;54.89;52172.94;4966616;28;20009;-70
2024/04/07 10:55:33;;;;;;;;;;;;;;;-144.99;54.13;52146.44;4967954;28;19930;-70
2024/04/07 10:57:58;;;;;;;;;;;;;;;-144.99;53.56;52150.53;4964930;28;19996;-71
2024/04/07 11:00:25;;;;;;;;;;;;;;;-144.99;53.64;52146.44;4972212;28;19930;-69
2024/04/07 11:02:52;;;;;;;;;;;;;;;-144.99;54.33;52232.03;4972590;28;20377;-68
2024/04/07 11:05:19;;;;;;;;;;;;;;;-144.99;54.37;52183.13;4967560;28;19933;-70
2024/04/07 11:07:46;;;;;;;;;;;;;;;-144.99;54.65;52150.53;4969755;28;20003;-69
2024/04/07 11:10:13;;;;;;;;;;;;;;;-144.99;54.04;52211.66;4964049;28;19934;-69
2024/04/07 11:12:40;;;;;;;;;;;;;;;-144.99;53.57;52219.81;4966303;28;20017;-70
2024/04/07 11:15:14;;;;;;;;;;;;;;;-144.99;53.46;52225.94;4969464;28;19937;-70
2024/04/07 11:17:40;;;;;;;;;;;;;;;-144.99;53.20;52223.88;4964009;28;20337;-70
2024/04/07 11:20:06;;;;;;;;;;;;;;;-144.99;52.96;52142.38;4964542;28;20012;-70
2024/04/07 11:22:32;;;;;;;;;;;;;;;-144.99;52.75;52150.53;4970099;28;20016;-70
2024/04/07 11:25:00;;;;;;;;;;;;;;;-144.99;52.16;52109.75;4969317;28;20448;-70
2024/04/07 11:27:25;;;;;;;;;;;;;;;-144.99;51.45;52083.25;4960087;28;19936;-69
2024/04/07 11:29:52;;;;;;;;;;;;;;;-144.99;51.31;52101.59;4963769;28;20021;-70
2024/04/07 11:32:19;;;;;;;;;;;;;;;-144.99;51.80;52130.13;4968260;28;19966;-69
2024/04/07 11:34:44;;;;;;;;;;;;;;;-144.99;51.66;52121.97;4964144;28;20446;-70
2024/04/07 11:37:11;;;;;;;;;;;;;;;-144.99;51.46;52138.28;4963990;28;19934;-70
2024/04/07 11:39:36;;;;;;;;;;;;;;;-144.99;50.23;52128.09;4970907;28;20435;-70
2024/04/07 11:42:05;;;;;;;;;;;;;;;-144.99;49.83;52097.53;4968342;28;20048;-69
2024/04/07 11:44:31;;;;;;;;;;;;;;;-144.99;51.01;52101.59;4974297;28;20146;-69
2024/04/07 11:46:57;;;;;;;;;;;;;;;-144.99;50.45;52121.97;4969016;28;20459;-69
2024/04/07 11:49:23;;;;;;;;;;;;;;;-144.99;50.48;52093.44;4964741;28;20035;-70
2024/04/07 11:51:50;;;;;;;;;;;;;;;-144.99;50.84;52136.25;4970071;28;19941;-69
2024/04/07 11:54:15;;;;;;;;;;;;;;;-144.99;50.07;52056.78;4966599;28;19964;-70
2024/04/07 11:56:45;;;;;;;;;;;;;;;-144.99;49.70;52060.84;4975117;28;20348;-69
2024/04/07 11:59:12;;;;;;;;;;;;;;;-144.99;49.78;52069.00;4965704;28;19930;-69
2024/04/07 12:01:38;;;;;;;;;;;;;;;-144.99;49.27;52069.00;4618609;28;10000406;-69
2024/04/07 12:04:04;;;;;;;;;;;;;;;-144.99;50.39;52109.75;4969002;28;20436;-69
2024/04/07 12:06:30;;;;;;;;;;;;;;;-144.99;51.31;52256.50;4969997;28;19977;-69
2024/04/07 12:08:56;;;;;;;;;;;;;;;-144.99;51.41;52162.75;4966958;28;20024;-69
2024/04/07 12:11:23;;;;;;;;;;;;;;;-144.99;51.23;52227.97;4969594;28;20644;-69
2024/04/07 12:13:48;;;;;;;;;;;;;;;-144.99;51.09;52142.38;4966393;28;19930;-69
2024/04/07 12:16:18;;;;;;;;;;;;;;;-144.99;50.96;52121.97;4963447;28;19929;-70
2024/04/07 12:18:43;;;;;;;;;;;;;;;-144.99;51.55;52252.44;4969537;28;19982;-70
2024/04/07 12:21:10;;;;;;;;;;;;;;;-144.99;51.32;52232.03;4959543;28;19930;-70
2024/04/07 12:23:35;;;;;;;;;;;;;;;-144.99;50.30;52081.22;4963944;28;20208;-70